sensor_id;sensor_type;location;lat;lon;timestamp;temperature;humidity
19017;DHT22;9641;51.494;6.670;2022-10-31T00:00:15;15.10;99.90
19017;DHT22;9641;51.494;6.670;2022-10-31T00:02:42;15.10;99.90
19017;DHT22;9641;51.494;6.670;2022-10-31T00:05:09;15.10;99.90
19017;DHT22;9641;51.494;6.670;2022-10-31T00:07:36;15.10;99.90
19017;DHT22;9641;51.494;6.670;2022-10-31T00:10:06;15.00;99.90
19017;DHT22;9641;51.494;6.670;2022-10-31T00:12:33;15.00;99.90
19017;DHT22;9641;51.494;6.670;2022-10-31T00:14:59;15.00;99.90
19017;DHT22;9641;51.494;6.670;2022-10-31T00:17:26;15.00;99.90
19017;DHT22;9641;51.494;6.670;2022-10-31T00:19:53;15.00;99.90
19017;DHT22;9641;51.494;6.670;2022-10-31T00:22:20;15.00;99.90
19017;DHT22;9641;51.494;6.670;2022-10-31T00:24:47;15.00;99.90
19017;DHT22;9641;51.494;6.670;2022-10-31T00:27:15;15.00;99.90
19017;DHT22;9641;51.494;6.670;2022-10-31T00:29:42;15.00;99.90
19017;DHT22;9641;51.494;6.670;2022-10-31T00:32:08;15.00;99.90
19017;DHT22;9641;51.494;6.670;2022-10-31T00:34:35;15.00;99.90
19017;DHT22;9641;51.494;6.670;2022-10-31T00:37:02;15.00;99.90
19017;DHT22;9641;51.494;6.670;2022-10-31T00:39:29;15.00;99.90
19017;DHT22;9641;51.494;6.670;2022-10-31T00:41:55;15.10;99.90
19017;DHT22;9641;51.494;6.670;2022-10-31T00:44:24;15.00;99.90
19017;DHT22;9641;51.494;6.670;2022-10-31T00:46:51;15.10;99.90
19017;DHT22;9641;51.494;6.670;2022-10-31T00:49:21;15.00;99.90
19017;DHT22;9641;51.494;6.670;2022-10-31T00:51:48;15.00;99.90
19017;DHT22;9641;51.494;6.670;2022-10-31T00:54:15;15.00;99.90
19017;DHT22;9641;51.494;6.670;2022-10-31T00:56:43;15.00;99.90
19017;DHT22;9641;51.494;6.670;2022-10-31T00:59:10;15.00;99.90
19017;DHT22;9641;51.494;6.670;2022-10-31T01:01:39;15.00;99.90
19017;DHT22;9641;51.494;6.670;2022-10-31T01:04:05;15.00;99.90
19017;DHT22;9641;51.494;6.670;2022-10-31T01:06:32;14.90;99.90
19017;DHT22;9641;51.494;6.670;2022-10-31T01:08:59;14.80;99.90
19017;DHT22;9641;51.494;6.670;2022-10-31T01:11:27;14.80;99.90
19017;DHT22;9641;51.494;6.670;2022-10-31T01:13:54;14.70;99.90
19017;DHT22;9641;51.494;6.670;2022-10-31T01:16:23;14.60;99.90
19017;DHT22;9641;51.494;6.670;2022-10-31T01:18:52;14.60;99.90
19017;DHT22;9641;51.494;6.670;2022-10-31T01:21:21;14.50;99.90
19017;DHT22;9641;51.494;6.670;2022-10-31T01:23:49;14.50;99.90
19017;DHT22;9641;51.494;6.670;2022-10-31T01:26:18;14.40;99.90
19017;DHT22;9641;51.494;6.670;2022-10-31T01:28:47;14.40;99.90
19017;DHT22;9641;51.494;6.670;2022-10-31T01:31:15;14.30;99.90
19017;DHT22;9641;51.494;6.670;2022-10-31T01:33:44;14.30;99.90
19017;DHT22;9641;51.494;6.670;2022-10-31T01:36:17;14.20;99.90
19017;DHT22;9641;51.494;6.670;2022-10-31T01:38:44;14.20;99.90
19017;DHT22;9641;51.494;6.670;2022-10-31T01:41:13;14.10;99.90
19017;DHT22;9641;51.494;6.670;2022-10-31T01:43:45;14.00;99.90
19017;DHT22;9641;51.494;6.670;2022-10-31T01:46:14;14.00;99.90
19017;DHT22;9641;51.494;6.670;2022-10-31T01:48:42;14.00;99.90
19017;DHT22;9641;51.494;6.670;2022-10-31T01:51:11;14.00;99.90
19017;DHT22;9641;51.494;6.670;2022-10-31T01:53:42;14.00;99.90
19017;DHT22;9641;51.494;6.670;2022-10-31T01:56:11;14.00;99.90
19017;DHT22;9641;51.494;6.670;2022-10-31T01:58:39;13.90;99.90
19017;DHT22;9641;51.494;6.670;2022-10-31T02:01:06;13.90;99.90
19017;DHT22;9641;51.494;6.670;2022-10-31T02:03:33;13.90;99.90
19017;DHT22;9641;51.494;6.670;2022-10-31T02:06:00;14.00;99.90
19017;DHT22;9641;51.494;6.670;2022-10-31T02:08:30;13.90;99.90
19017;DHT22;9641;51.494;6.670;2022-10-31T02:11:00;13.90;99.90
19017;DHT22;9641;51.494;6.670;2022-10-31T02:13:28;13.90;99.90
19017;DHT22;9641;51.494;6.670;2022-10-31T02:15:57;13.90;99.90
19017;DHT22;9641;51.494;6.670;2022-10-31T02:18:27;13.90;99.90
19017;DHT22;9641;51.494;6.670;2022-10-31T02:21:01;13.90;99.90
19017;DHT22;9641;51.494;6.670;2022-10-31T02:26:49;13.80;99.90
19017;DHT22;9641;51.494;6.670;2022-10-31T02:29:50;13.80;99.90
19017;DHT22;9641;51.494;6.670;2022-10-31T02:32:25;13.70;99.90
19017;DHT22;9641;51.494;6.670;2022-10-31T02:34:58;13.70;99.90
19017;DHT22;9641;51.494;6.670;2022-10-31T02:37:34;13.70;99.90
19017;DHT22;9641;51.494;6.670;2022-10-31T02:40:10;13.60;99.90
19017;DHT22;9641;51.494;6.670;2022-10-31T02:43:02;13.60;99.90
19017;DHT22;9641;51.494;6.670;2022-10-31T02:45:35;13.60;99.90
19017;DHT22;9641;51.494;6.670;2022-10-31T02:48:09;13.50;99.90
19017;DHT22;9641;51.494;6.670;2022-10-31T02:50:40;13.50;99.90
19017;DHT22;9641;51.494;6.670;2022-10-31T02:53:09;13.50;99.90
19017;DHT22;9641;51.494;6.670;2022-10-31T02:55:47;13.50;99.90
19017;DHT22;9641;51.494;6.670;2022-10-31T02:58:17;13.50;99.90
19017;DHT22;9641;51.494;6.670;2022-10-31T03:00:54;13.50;99.90
19017;DHT22;9641;51.494;6.670;2022-10-31T03:03:29;13.50;99.90
19017;DHT22;9641;51.494;6.670;2022-10-31T03:06:03;13.50;99.90
19017;DHT22;9641;51.494;6.670;2022-10-31T03:08:36;13.50;99.90
19017;DHT22;9641;51.494;6.670;2022-10-31T03:11:07;13.50;99.90
19017;DHT22;9641;51.494;6.670;2022-10-31T03:13:38;13.50;99.90
19017;DHT22;9641;51.494;6.670;2022-10-31T03:16:09;13.50;99.90
19017;DHT22;9641;51.494;6.670;2022-10-31T03:18:40;13.40;99.90
19017;DHT22;9641;51.494;6.670;2022-10-31T03:21:12;13.40;99.90
19017;DHT22;9641;51.494;6.670;2022-10-31T03:23:41;13.40;99.90
19017;DHT22;9641;51.494;6.670;2022-10-31T03:26:20;13.40;99.90
19017;DHT22;9641;51.494;6.670;2022-10-31T03:28:52;13.40;99.90
19017;DHT22;9641;51.494;6.670;2022-10-31T03:31:25;13.30;99.90
19017;DHT22;9641;51.494;6.670;2022-10-31T03:33:56;13.30;99.90
19017;DHT22;9641;51.494;6.670;2022-10-31T03:36:30;13.20;99.90
19017;DHT22;9641;51.494;6.670;2022-10-31T03:39:01;13.20;99.90
19017;DHT22;9641;51.494;6.670;2022-10-31T03:41:31;13.20;99.90
19017;DHT22;9641;51.494;6.670;2022-10-31T03:44:02;13.20;99.90
19017;DHT22;9641;51.494;6.670;2022-10-31T03:46:32;13.20;99.90
19017;DHT22;9641;51.494;6.670;2022-10-31T03:49:00;13.10;99.90
19017;DHT22;9641;51.494;6.670;2022-10-31T03:51:32;13.10;99.90
19017;DHT22;9641;51.494;6.670;2022-10-31T03:54:06;13.10;99.90
19017;DHT22;9641;51.494;6.670;2022-10-31T03:56:37;13.00;99.90
19017;DHT22;9641;51.494;6.670;2022-10-31T03:59:12;13.00;99.90
19017;DHT22;9641;51.494;6.670;2022-10-31T04:01:45;13.00;99.90
19017;DHT22;9641;51.494;6.670;2022-10-31T04:04:15;13.00;99.90
19017;DHT22;9641;51.494;6.670;2022-10-31T04:06:44;12.90;99.90
19017;DHT22;9641;51.494;6.670;2022-10-31T04:09:14;12.90;99.90
19017;DHT22;9641;51.494;6.670;2022-10-31T04:11:45;13.00;99.90
19017;DHT22;9641;51.494;6.670;2022-10-31T04:14:38;13.00;99.90
19017;DHT22;9641;51.494;6.670;2022-10-31T04:17:16;12.90;99.90
19017;DHT22;9641;51.494;6.670;2022-10-31T04:19:45;12.90;99.90
19017;DHT22;9641;51.494;6.670;2022-10-31T04:22:13;12.90;99.90
19017;DHT22;9641;51.494;6.670;2022-10-31T04:24:40;12.70;99.90
19017;DHT22;9641;51.494;6.670;2022-10-31T04:27:10;12.70;99.90
19017;DHT22;9641;51.494;6.670;2022-10-31T04:29:37;12.80;99.90
19017;DHT22;9641;51.494;6.670;2022-10-31T04:32:04;12.80;99.90
19017;DHT22;9641;51.494;6.670;2022-10-31T04:34:31;12.90;99.90
19017;DHT22;9641;51.494;6.670;2022-10-31T04:36:59;12.90;99.90
19017;DHT22;9641;51.494;6.670;2022-10-31T04:39:26;12.90;99.90
19017;DHT22;9641;51.494;6.670;2022-10-31T04:42:16;13.00;99.90
19017;DHT22;9641;51.494;6.670;2022-10-31T04:44:43;13.10;99.90
19017;DHT22;9641;51.494;6.670;2022-10-31T04:47:10;13.10;99.90
19017;DHT22;9641;51.494;6.670;2022-10-31T04:49:37;13.10;99.90
19017;DHT22;9641;51.494;6.670;2022-10-31T04:52:05;13.10;99.90
19017;DHT22;9641;51.494;6.670;2022-10-31T04:54:34;13.10;99.90
19017;DHT22;9641;51.494;6.670;2022-10-31T04:57:19;13.10;99.90
19017;DHT22;9641;51.494;6.670;2022-10-31T04:59:47;13.10;99.90
19017;DHT22;9641;51.494;6.670;2022-10-31T05:02:15;13.20;99.90
19017;DHT22;9641;51.494;6.670;2022-10-31T05:04:46;13.20;99.90
19017;DHT22;9641;51.494;6.670;2022-10-31T05:07:15;13.10;99.90
19017;DHT22;9641;51.494;6.670;2022-10-31T05:09:42;13.10;99.90
19017;DHT22;9641;51.494;6.670;2022-10-31T05:12:12;13.00;99.90
19017;DHT22;9641;51.494;6.670;2022-10-31T05:14:57;13.00;99.90
19017;DHT22;9641;51.494;6.670;2022-10-31T05:17:43;12.90;99.90
19017;DHT22;9641;51.494;6.670;2022-10-31T05:20:30;12.90;99.90
19017;DHT22;9641;51.494;6.670;2022-10-31T05:23:19;12.80;99.90
19017;DHT22;9641;51.494;6.670;2022-10-31T05:25:46;12.80;99.90
19017;DHT22;9641;51.494;6.670;2022-10-31T05:28:13;12.80;99.90
19017;DHT22;9641;51.494;6.670;2022-10-31T05:30:40;12.70;99.90
19017;DHT22;9641;51.494;6.670;2022-10-31T05:33:11;12.70;99.90
19017;DHT22;9641;51.494;6.670;2022-10-31T05:36:14;12.70;99.90
19017;DHT22;9641;51.494;6.670;2022-10-31T05:38:52;12.60;99.90
19017;DHT22;9641;51.494;6.670;2022-10-31T05:41:23;12.60;99.90
19017;DHT22;9641;51.494;6.670;2022-10-31T05:43:52;12.60;99.90
19017;DHT22;9641;51.494;6.670;2022-10-31T05:46:25;12.60;99.90
19017;DHT22;9641;51.494;6.670;2022-10-31T05:49:11;12.60;99.90
19017;DHT22;9641;51.494;6.670;2022-10-31T05:51:56;12.60;99.90
19017;DHT22;9641;51.494;6.670;2022-10-31T05:54:36;12.60;99.90
19017;DHT22;9641;51.494;6.670;2022-10-31T05:57:03;12.60;99.90
19017;DHT22;9641;51.494;6.670;2022-10-31T05:59:30;12.50;99.90
19017;DHT22;9641;51.494;6.670;2022-10-31T06:01:57;12.50;99.90
19017;DHT22;9641;51.494;6.670;2022-10-31T06:04:44;12.50;99.90
19017;DHT22;9641;51.494;6.670;2022-10-31T06:07:11;12.50;99.90
19017;DHT22;9641;51.494;6.670;2022-10-31T06:09:39;12.50;99.90
19017;DHT22;9641;51.494;6.670;2022-10-31T06:12:06;12.40;99.90
19017;DHT22;9641;51.494;6.670;2022-10-31T06:14:53;12.40;99.90
19017;DHT22;9641;51.494;6.670;2022-10-31T06:17:20;12.50;99.90
19017;DHT22;9641;51.494;6.670;2022-10-31T06:19:47;12.40;99.90
19017;DHT22;9641;51.494;6.670;2022-10-31T06:22:19;12.40;99.90
19017;DHT22;9641;51.494;6.670;2022-10-31T06:24:47;12.40;99.90
19017;DHT22;9641;51.494;6.670;2022-10-31T06:27:27;12.40;99.90
19017;DHT22;9641;51.494;6.670;2022-10-31T06:29:56;12.30;99.90
19017;DHT22;9641;51.494;6.670;2022-10-31T06:32:30;12.30;99.90
19017;DHT22;9641;51.494;6.670;2022-10-31T06:34:57;12.30;99.90
19017;DHT22;9641;51.494;6.670;2022-10-31T06:37:24;12.40;99.90
19017;DHT22;9641;51.494;6.670;2022-10-31T06:39:55;12.40;99.90
19017;DHT22;9641;51.494;6.670;2022-10-31T06:42:22;12.40;99.90
19017;DHT22;9641;51.494;6.670;2022-10-31T06:44:49;12.50;99.90
19017;DHT22;9641;51.494;6.670;2022-10-31T06:47:42;12.50;99.90
19017;DHT22;9641;51.494;6.670;2022-10-31T06:50:14;12.50;99.90
19017;DHT22;9641;51.494;6.670;2022-10-31T06:52:41;12.50;99.90
19017;DHT22;9641;51.494;6.670;2022-10-31T06:55:09;12.50;99.90
19017;DHT22;9641;51.494;6.670;2022-10-31T06:57:37;12.50;99.90
19017;DHT22;9641;51.494;6.670;2022-10-31T07:00:05;12.60;99.90
19017;DHT22;9641;51.494;6.670;2022-10-31T07:02:40;12.60;99.90
19017;DHT22;9641;51.494;6.670;2022-10-31T07:05:10;12.60;99.90
19017;DHT22;9641;51.494;6.670;2022-10-31T07:07:58;12.60;99.90
19017;DHT22;9641;51.494;6.670;2022-10-31T07:10:30;12.60;99.90
19017;DHT22;9641;51.494;6.670;2022-10-31T07:13:03;12.50;99.90
19017;DHT22;9641;51.494;6.670;2022-10-31T07:15:34;12.60;99.90
19017;DHT22;9641;51.494;6.670;2022-10-31T07:18:01;12.60;99.90
19017;DHT22;9641;51.494;6.670;2022-10-31T07:20:33;12.60;99.90
19017;DHT22;9641;51.494;6.670;2022-10-31T07:23:02;12.60;99.90
19017;DHT22;9641;51.494;6.670;2022-10-31T07:25:35;12.60;99.90
19017;DHT22;9641;51.494;6.670;2022-10-31T07:28:10;12.70;99.90
19017;DHT22;9641;51.494;6.670;2022-10-31T07:30:39;12.70;99.90
19017;DHT22;9641;51.494;6.670;2022-10-31T07:33:09;12.80;99.90
19017;DHT22;9641;51.494;6.670;2022-10-31T07:36:02;12.80;99.90
19017;DHT22;9641;51.494;6.670;2022-10-31T07:38:32;12.80;99.90
19017;DHT22;9641;51.494;6.670;2022-10-31T07:41:05;12.80;99.90
19017;DHT22;9641;51.494;6.670;2022-10-31T07:43:37;12.80;99.90
19017;DHT22;9641;51.494;6.670;2022-10-31T07:46:16;12.90;99.90
19017;DHT22;9641;51.494;6.670;2022-10-31T07:49:02;12.90;99.90
19017;DHT22;9641;51.494;6.670;2022-10-31T07:51:48;13.00;99.90
19017;DHT22;9641;51.494;6.670;2022-10-31T07:54:34;13.10;99.90
19017;DHT22;9641;51.494;6.670;2022-10-31T07:57:02;13.10;99.90
19017;DHT22;9641;51.494;6.670;2022-10-31T07:59:32;13.20;99.90
19017;DHT22;9641;51.494;6.670;2022-10-31T08:02:00;13.20;99.90
19017;DHT22;9641;51.494;6.670;2022-10-31T08:04:47;13.20;99.90
19017;DHT22;9641;51.494;6.670;2022-10-31T08:07:46;13.30;99.90
19017;DHT22;9641;51.494;6.670;2022-10-31T08:10:19;13.40;99.90
19017;DHT22;9641;51.494;6.670;2022-10-31T08:12:55;13.40;99.90
19017;DHT22;9641;51.494;6.670;2022-10-31T08:15:22;13.50;99.90
19017;DHT22;9641;51.494;6.670;2022-10-31T08:17:51;13.50;99.90
19017;DHT22;9641;51.494;6.670;2022-10-31T08:20:18;13.60;99.90
19017;DHT22;9641;51.494;6.670;2022-10-31T08:22:56;13.70;99.90
19017;DHT22;9641;51.494;6.670;2022-10-31T08:25:24;13.70;99.90
19017;DHT22;9641;51.494;6.670;2022-10-31T08:27:54;13.80;99.90
19017;DHT22;9641;51.494;6.670;2022-10-31T08:30:39;13.90;99.90
19017;DHT22;9641;51.494;6.670;2022-10-31T08:33:38;13.90;99.90
19017;DHT22;9641;51.494;6.670;2022-10-31T08:36:18;14.00;99.90
19017;DHT22;9641;51.494;6.670;2022-10-31T08:38:48;14.00;99.90
19017;DHT22;9641;51.494;6.670;2022-10-31T08:41:17;14.10;99.90
19017;DHT22;9641;51.494;6.670;2022-10-31T08:43:46;14.10;99.90
19017;DHT22;9641;51.494;6.670;2022-10-31T08:46:15;14.20;99.90
19017;DHT22;9641;51.494;6.670;2022-10-31T08:48:43;14.30;99.90
19017;DHT22;9641;51.494;6.670;2022-10-31T08:51:12;14.40;99.90
19017;DHT22;9641;51.494;6.670;2022-10-31T08:53:41;14.50;99.90
19017;DHT22;9641;51.494;6.670;2022-10-31T08:56:30;14.60;99.90
19017;DHT22;9641;51.494;6.670;2022-10-31T08:59:05;14.70;99.90
19017;DHT22;9641;51.494;6.670;2022-10-31T09:01:55;14.90;99.90
19017;DHT22;9641;51.494;6.670;2022-10-31T09:04:24;15.00;99.90
19017;DHT22;9641;51.494;6.670;2022-10-31T09:06:53;15.20;99.90
19017;DHT22;9641;51.494;6.670;2022-10-31T09:09:21;15.30;99.90
19017;DHT22;9641;51.494;6.670;2022-10-31T09:11:48;15.30;99.90
19017;DHT22;9641;51.494;6.670;2022-10-31T09:14:34;15.30;99.90
19017;DHT22;9641;51.494;6.670;2022-10-31T09:17:22;15.40;99.90
19017;DHT22;9641;51.494;6.670;2022-10-31T09:20:10;15.50;99.90
19017;DHT22;9641;51.494;6.670;2022-10-31T09:22:37;15.50;99.90
19017;DHT22;9641;51.494;6.670;2022-10-31T09:25:05;15.50;99.90
19017;DHT22;9641;51.494;6.670;2022-10-31T09:27:32;15.60;99.90
19017;DHT22;9641;51.494;6.670;2022-10-31T09:30:01;15.60;99.90
19017;DHT22;9641;51.494;6.670;2022-10-31T09:32:28;15.70;99.90
19017;DHT22;9641;51.494;6.670;2022-10-31T09:34:56;15.70;99.90
19017;DHT22;9641;51.494;6.670;2022-10-31T09:37:23;15.80;99.90
19017;DHT22;9641;51.494;6.670;2022-10-31T09:39:51;15.80;99.90
19017;DHT22;9641;51.494;6.670;2022-10-31T09:42:38;15.90;99.90
19017;DHT22;9641;51.494;6.670;2022-10-31T09:45:20;15.80;99.90
19017;DHT22;9641;51.494;6.670;2022-10-31T09:47:57;15.90;99.90
19017;DHT22;9641;51.494;6.670;2022-10-31T09:50:34;15.90;99.90
19017;DHT22;9641;51.494;6.670;2022-10-31T09:53:25;16.00;99.90
19017;DHT22;9641;51.494;6.670;2022-10-31T09:55:55;16.10;99.90
19017;DHT22;9641;51.494;6.670;2022-10-31T09:58:24;16.20;99.90
19017;DHT22;9641;51.494;6.670;2022-10-31T10:00:55;16.20;99.90
19017;DHT22;9641;51.494;6.670;2022-10-31T10:03:29;16.20;99.90
19017;DHT22;9641;51.494;6.670;2022-10-31T10:06:09;16.20;99.90
19017;DHT22;9641;51.494;6.670;2022-10-31T10:08:58;16.30;99.90
19017;DHT22;9641;51.494;6.670;2022-10-31T10:11:53;16.30;99.90
19017;DHT22;9641;51.494;6.670;2022-10-31T10:14:34;16.50;99.90
19017;DHT22;9641;51.494;6.670;2022-10-31T10:17:27;16.70;99.90
19017;DHT22;9641;51.494;6.670;2022-10-31T10:20:21;16.90;99.90
19017;DHT22;9641;51.494;6.670;2022-10-31T10:22:58;17.00;99.90
19017;DHT22;9641;51.494;6.670;2022-10-31T10:25:34;17.20;99.90
19017;DHT22;9641;51.494;6.670;2022-10-31T10:28:16;17.40;99.90
19017;DHT22;9641;51.494;6.670;2022-10-31T10:30:46;17.60;87.10
19017;DHT22;9641;51.494;6.670;2022-10-31T10:33:28;17.70;56.60
19017;DHT22;9641;51.494;6.670;2022-10-31T10:36:00;17.80;34.30
19017;DHT22;9641;51.494;6.670;2022-10-31T10:38:32;17.90;9.30
19017;DHT22;9641;51.494;6.670;2022-10-31T10:41:02;18.00;1.00
19017;DHT22;9641;51.494;6.670;2022-10-31T10:43:33;17.90;1.00
19017;DHT22;9641;51.494;6.670;2022-10-31T10:46:13;17.80;1.00
19017;DHT22;9641;51.494;6.670;2022-10-31T10:49:16;17.70;1.00
19017;DHT22;9641;51.494;6.670;2022-10-31T10:51:46;17.70;43.20
19017;DHT22;9641;51.494;6.670;2022-10-31T10:57:24;17.70;1.00
19017;DHT22;9641;51.494;6.670;2022-10-31T10:59:53;17.80;1.00
19017;DHT22;9641;51.494;6.670;2022-10-31T11:02:23;17.80;1.00
19017;DHT22;9641;51.494;6.670;2022-10-31T11:04:53;17.80;1.00
19017;DHT22;9641;51.494;6.670;2022-10-31T11:07:20;17.80;20.20
19017;DHT22;9641;51.494;6.670;2022-10-31T11:09:48;17.80;1.00
19017;DHT22;9641;51.494;6.670;2022-10-31T11:12:21;17.70;1.00
19017;DHT22;9641;51.494;6.670;2022-10-31T11:14:50;17.50;36.80
19017;DHT22;9641;51.494;6.670;2022-10-31T11:17:22;17.60;35.80
19017;DHT22;9641;51.494;6.670;2022-10-31T11:20:05;17.60;66.40
19017;DHT22;9641;51.494;6.670;2022-10-31T11:22:33;17.60;93.40
19017;DHT22;9641;51.494;6.670;2022-10-31T11:25:00;17.70;99.90
19017;DHT22;9641;51.494;6.670;2022-10-31T11:27:27;17.90;85.70
19017;DHT22;9641;51.494;6.670;2022-10-31T11:30:05;18.00;47.60
19017;DHT22;9641;51.494;6.670;2022-10-31T11:32:32;18.20;15.50
19017;DHT22;9641;51.494;6.670;2022-10-31T11:35:07;18.20;1.00
19017;DHT22;9641;51.494;6.670;2022-10-31T11:37:42;18.20;1.00
19017;DHT22;9641;51.494;6.670;2022-10-31T11:40:17;18.30;1.00
19017;DHT22;9641;51.494;6.670;2022-10-31T11:42:45;18.40;1.00
19017;DHT22;9641;51.494;6.670;2022-10-31T11:45:16;18.50;1.00
19017;DHT22;9641;51.494;6.670;2022-10-31T11:47:47;18.50;1.00
19017;DHT22;9641;51.494;6.670;2022-10-31T11:50:21;18.60;1.00
19017;DHT22;9641;51.494;6.670;2022-10-31T11:52:50;18.60;1.00
19017;DHT22;9641;51.494;6.670;2022-10-31T11:55:31;18.70;1.00
19017;DHT22;9641;51.494;6.670;2022-10-31T12:01:40;19.00;1.00
19017;DHT22;9641;51.494;6.670;2022-10-31T12:04:13;19.20;1.00
19017;DHT22;9641;51.494;6.670;2022-10-31T12:06:44;19.30;1.00
19017;DHT22;9641;51.494;6.670;2022-10-31T12:09:21;19.30;1.00
19017;DHT22;9641;51.494;6.670;2022-10-31T12:12:10;19.50;99.90
19017;DHT22;9641;51.494;6.670;2022-10-31T12:14:42;19.70;99.90
19017;DHT22;9641;51.494;6.670;2022-10-31T12:17:15;19.90;99.90
19017;DHT22;9641;51.494;6.670;2022-10-31T12:19:54;20.10;99.90
19017;DHT22;9641;51.494;6.670;2022-10-31T12:22:35;19.90;99.90
19017;DHT22;9641;51.494;6.670;2022-10-31T12:25:18;19.80;1.00
19017;DHT22;9641;51.494;6.670;2022-10-31T12:28:11;19.80;99.90
19017;DHT22;9641;51.494;6.670;2022-10-31T12:30:53;19.80;1.00
19017;DHT22;9641;51.494;6.670;2022-10-31T12:33:30;19.90;1.00
19017;DHT22;9641;51.494;6.670;2022-10-31T12:36:12;19.90;1.00
19017;DHT22;9641;51.494;6.670;2022-10-31T12:38:55;20.00;1.00
19017;DHT22;9641;51.494;6.670;2022-10-31T12:41:36;20.10;1.00
19017;DHT22;9641;51.494;6.670;2022-10-31T12:44:11;20.50;1.00
19017;DHT22;9641;51.494;6.670;2022-10-31T12:46:54;21.10;1.00
19017;DHT22;9641;51.494;6.670;2022-10-31T12:49:36;21.70;1.00
19017;DHT22;9641;51.494;6.670;2022-10-31T12:52:27;22.60;1.00
19017;DHT22;9641;51.494;6.670;2022-10-31T12:55:13;23.20;50.80
19017;DHT22;9641;51.494;6.670;2022-10-31T12:57:44;23.70;1.00
19017;DHT22;9641;51.494;6.670;2022-10-31T13:00:14;24.00;1.00
19017;DHT22;9641;51.494;6.670;2022-10-31T13:02:47;24.10;1.00
19017;DHT22;9641;51.494;6.670;2022-10-31T13:05:18;24.10;1.00
19017;DHT22;9641;51.494;6.670;2022-10-31T13:07:52;23.80;1.00
19017;DHT22;9641;51.494;6.670;2022-10-31T13:10:24;24.00;1.00
19017;DHT22;9641;51.494;6.670;2022-10-31T13:12:54;24.10;1.00
19017;DHT22;9641;51.494;6.670;2022-10-31T13:15:24;24.50;1.00
19017;DHT22;9641;51.494;6.670;2022-10-31T13:17:55;24.90;1.00
19017;DHT22;9641;51.494;6.670;2022-10-31T13:20:27;24.70;1.00
19017;DHT22;9641;51.494;6.670;2022-10-31T13:23:03;24.70;1.00
19017;DHT22;9641;51.494;6.670;2022-10-31T13:25:38;24.70;1.00
19017;DHT22;9641;51.494;6.670;2022-10-31T13:28:15;24.30;1.00
19017;DHT22;9641;51.494;6.670;2022-10-31T13:30:47;23.80;1.00
19017;DHT22;9641;51.494;6.670;2022-10-31T13:33:17;23.50;1.00
19017;DHT22;9641;51.494;6.670;2022-10-31T13:35:50;23.40;1.00
19017;DHT22;9641;51.494;6.670;2022-10-31T13:38:22;23.50;1.00
19017;DHT22;9641;51.494;6.670;2022-10-31T13:40:55;23.70;1.00
19017;DHT22;9641;51.494;6.670;2022-10-31T13:43:33;23.50;1.00
19017;DHT22;9641;51.494;6.670;2022-10-31T13:46:22;23.40;1.00
19017;DHT22;9641;51.494;6.670;2022-10-31T13:48:50;22.90;1.00
19017;DHT22;9641;51.494;6.670;2022-10-31T13:51:27;22.50;1.00
19017;DHT22;9641;51.494;6.670;2022-10-31T13:54:00;22.20;1.00
19017;DHT22;9641;51.494;6.670;2022-10-31T13:56:31;22.10;1.00
19017;DHT22;9641;51.494;6.670;2022-10-31T13:59:21;22.00;1.00
19017;DHT22;9641;51.494;6.670;2022-10-31T14:01:54;21.90;1.00
19017;DHT22;9641;51.494;6.670;2022-10-31T14:04:47;21.70;99.90
19017;DHT22;9641;51.494;6.670;2022-10-31T14:07:16;21.60;99.90
19017;DHT22;9641;51.494;6.670;2022-10-31T14:09:53;21.50;1.00
19017;DHT22;9641;51.494;6.670;2022-10-31T14:12:27;21.40;1.00
19017;DHT22;9641;51.494;6.670;2022-10-31T14:14:58;21.10;1.00
19017;DHT22;9641;51.494;6.670;2022-10-31T14:17:31;21.00;1.00
19017;DHT22;9641;51.494;6.670;2022-10-31T14:20:24;21.10;1.00
19017;DHT22;9641;51.494;6.670;2022-10-31T14:22:51;21.20;1.00
19017;DHT22;9641;51.494;6.670;2022-10-31T14:25:27;21.50;1.00
19017;DHT22;9641;51.494;6.670;2022-10-31T14:27:56;22.00;99.90
19017;DHT22;9641;51.494;6.670;2022-10-31T14:30:25;22.30;1.00
19017;DHT22;9641;51.494;6.670;2022-10-31T14:32:56;22.60;1.00
19017;DHT22;9641;51.494;6.670;2022-10-31T14:35:45;22.90;1.00
19017;DHT22;9641;51.494;6.670;2022-10-31T14:38:36;23.10;1.00
19017;DHT22;9641;51.494;6.670;2022-10-31T14:44:18;22.90;1.00
19017;DHT22;9641;51.494;6.670;2022-10-31T14:46:56;22.70;1.00
19017;DHT22;9641;51.494;6.670;2022-10-31T14:49:40;22.60;1.00
19017;DHT22;9641;51.494;6.670;2022-10-31T14:52:12;22.30;1.00
19017;DHT22;9641;51.494;6.670;2022-10-31T14:54:42;22.10;1.00
19017;DHT22;9641;51.494;6.670;2022-10-31T14:57:16;21.80;1.00
19017;DHT22;9641;51.494;6.670;2022-10-31T14:59:49;21.50;1.00
19017;DHT22;9641;51.494;6.670;2022-10-31T15:02:20;21.30;1.00
19017;DHT22;9641;51.494;6.670;2022-10-31T15:04:51;21.30;1.00
19017;DHT22;9641;51.494;6.670;2022-10-31T15:07:20;21.10;1.00
19017;DHT22;9641;51.494;6.670;2022-10-31T15:09:56;20.90;1.00
19017;DHT22;9641;51.494;6.670;2022-10-31T15:12:30;20.90;1.00
19017;DHT22;9641;51.494;6.670;2022-10-31T15:15:11;20.70;1.00
19017;DHT22;9641;51.494;6.670;2022-10-31T15:17:44;20.60;1.00
19017;DHT22;9641;51.494;6.670;2022-10-31T15:20:18;20.50;99.90
19017;DHT22;9641;51.494;6.670;2022-10-31T15:22:47;20.30;99.90
19017;DHT22;9641;51.494;6.670;2022-10-31T15:25:18;20.20;99.90
19017;DHT22;9641;51.494;6.670;2022-10-31T15:27:55;20.10;1.00
19017;DHT22;9641;51.494;6.670;2022-10-31T15:30:26;20.00;1.00
19017;DHT22;9641;51.494;6.670;2022-10-31T15:32:54;19.90;1.00
19017;DHT22;9641;51.494;6.670;2022-10-31T15:35:24;19.80;99.90
19017;DHT22;9641;51.494;6.670;2022-10-31T15:37:53;19.70;1.00
19017;DHT22;9641;51.494;6.670;2022-10-31T15:40:25;19.50;1.00
19017;DHT22;9641;51.494;6.670;2022-10-31T15:42:56;19.40;1.00
19017;DHT22;9641;51.494;6.670;2022-10-31T15:45:39;19.20;1.00
19017;DHT22;9641;51.494;6.670;2022-10-31T15:48:16;19.10;1.00
19017;DHT22;9641;51.494;6.670;2022-10-31T15:50:49;19.00;1.00
19017;DHT22;9641;51.494;6.670;2022-10-31T15:53:21;18.90;1.00
19017;DHT22;9641;51.494;6.670;2022-10-31T15:55:52;18.80;1.00
19017;DHT22;9641;51.494;6.670;2022-10-31T15:58:21;18.70;99.90
19017;DHT22;9641;51.494;6.670;2022-10-31T16:01:03;18.60;99.90
19017;DHT22;9641;51.494;6.670;2022-10-31T16:03:31;18.50;99.90
19017;DHT22;9641;51.494;6.670;2022-10-31T16:05:59;18.50;1.00
19017;DHT22;9641;51.494;6.670;2022-10-31T16:08:33;18.40;1.00
19017;DHT22;9641;51.494;6.670;2022-10-31T16:11:17;18.40;99.90
19017;DHT22;9641;51.494;6.670;2022-10-31T16:13:54;18.30;1.00
19017;DHT22;9641;51.494;6.670;2022-10-31T16:16:23;18.30;99.90
19017;DHT22;9641;51.494;6.670;2022-10-31T16:18:52;18.30;1.00
19017;DHT22;9641;51.494;6.670;2022-10-31T16:21:28;18.30;1.00
19017;DHT22;9641;51.494;6.670;2022-10-31T16:24:00;18.20;1.00
19017;DHT22;9641;51.494;6.670;2022-10-31T16:26:28;18.20;1.00
19017;DHT22;9641;51.494;6.670;2022-10-31T16:28:57;18.20;1.00
19017;DHT22;9641;51.494;6.670;2022-10-31T16:31:34;18.20;1.00
19017;DHT22;9641;51.494;6.670;2022-10-31T16:34:14;18.20;99.90
19017;DHT22;9641;51.494;6.670;2022-10-31T16:36:42;18.20;1.00
19017;DHT22;9641;51.494;6.670;2022-10-31T16:39:09;18.20;1.00
19017;DHT22;9641;51.494;6.670;2022-10-31T16:41:40;18.10;1.00